createdAt,value
2024-01-22T00:01:23.639Z,101516.81
2024-01-22T00:03:53.374Z,101528.00
2024-01-22T00:06:21.704Z,101530.25
2024-01-22T00:08:50.022Z,101535.34
2024-01-22T00:11:18.275Z,101543.47
2024-01-22T00:13:46.565Z,101540.41
2024-01-22T00:16:16.644Z,101542.63
2024-01-22T00:18:45.080Z,101545.50
2024-01-22T00:21:15.034Z,101542.22
2024-01-22T00:23:43.319Z,101545.09
2024-01-22T00:26:13.730Z,101546.94
2024-01-22T00:28:42.375Z,101546.72
2024-01-22T00:31:10.736Z,101543.69
2024-01-22T00:33:39.296Z,101554.69
2024-01-22T00:36:08.925Z,101543.06
2024-01-22T00:38:40.210Z,101545.53
2024-01-22T00:41:08.446Z,101547.56
2024-01-22T00:43:37.360Z,101545.31
2024-01-22T00:46:06.067Z,101549.38
2024-01-22T00:48:34.392Z,101545.94
2024-01-22T00:51:02.743Z,101546.75
2024-01-22T00:53:30.958Z,101543.88
2024-01-22T00:56:00.654Z,101548.16
2024-01-22T00:58:28.922Z,101546.31
2024-01-22T01:00:57.264Z,101545.91
2024-01-22T01:03:25.573Z,101548.38
2024-01-22T01:05:53.940Z,101538.00
2024-01-22T01:08:22.322Z,101541.25
2024-01-22T01:10:50.583Z,101542.88
2024-01-22T01:13:20.630Z,101538.19
2024-01-22T01:15:48.959Z,101548.78
2024-01-22T01:18:17.466Z,101541.44
2024-01-22T01:20:45.936Z,101530.44
2024-01-22T01:23:14.283Z,101527.59
2024-01-22T01:25:42.528Z,101534.72
2024-01-22T01:28:11.195Z,101539.41
2024-01-22T01:30:40.949Z,101522.91
2024-01-22T01:33:09.277Z,101529.22
2024-01-22T01:35:38.048Z,101532.06
2024-01-22T01:38:06.527Z,101532.25
2024-01-22T01:40:34.817Z,101529.00
2024-01-22T01:43:03.032Z,101529.00
2024-01-22T01:45:31.633Z,101529.41
2024-01-22T01:48:02.244Z,101523.91
2024-01-22T01:50:31.322Z,101520.25
2024-01-22T01:52:59.657Z,101516.94
2024-01-22T01:55:28.061Z,101516.38
2024-01-22T01:58:02.846Z,101513.69
2024-01-22T02:00:34.223Z,101511.66
2024-01-22T02:03:04.324Z,101516.34
2024-01-22T02:05:32.865Z,101508.22
2024-01-22T02:08:02.079Z,101506.59
2024-01-22T02:10:30.404Z,101515.75
2024-01-22T02:12:58.894Z,101518.19
2024-01-22T02:15:27.299Z,101514.94
2024-01-22T02:17:55.652Z,101516.38
2024-01-22T02:20:25.400Z,101506.78
2024-01-22T02:22:53.892Z,101517.75
2024-01-22T02:25:23.645Z,101514.09
2024-01-22T02:27:51.972Z,101508.00
2024-01-22T02:30:20.404Z,101505.13
2024-01-22T02:32:48.705Z,101517.53
2024-01-22T02:35:17.196Z,101504.31
2024-01-22T02:37:45.466Z,101505.53
2024-01-22T02:40:13.990Z,101502.88
2024-01-22T02:42:44.117Z,101502.28
2024-01-22T02:45:13.267Z,101500.22
2024-01-22T02:47:41.967Z,101508.59
2024-01-22T02:50:11.527Z,101515.72
2024-01-22T02:52:40.451Z,101507.16
2024-01-22T02:55:09.248Z,101511.22
2024-01-22T02:57:37.670Z,101511.63
2024-01-22T03:00:08.970Z,101512.44
2024-01-22T03:02:37.645Z,101506.75
2024-01-22T03:05:06.454Z,101512.84
2024-01-22T03:07:34.794Z,101511.81
2024-01-22T03:10:03.190Z,101514.06
2024-01-22T03:12:31.455Z,101515.06
2024-01-22T03:14:59.780Z,101511.59
2024-01-22T03:17:29.448Z,101515.47
2024-01-22T03:19:57.870Z,101518.94
2024-01-22T03:22:26.175Z,101514.44
2024-01-22T03:24:54.506Z,101510.56
2024-01-22T03:27:22.840Z,101516.06
2024-01-22T03:29:51.182Z,101521.53
2024-01-22T03:32:19.554Z,101520.94
2024-01-22T03:34:49.226Z,101526.25
2024-01-22T03:37:17.575Z,101534.81
2024-01-22T03:39:45.859Z,101529.06
2024-01-22T03:42:14.847Z,101536.19
2024-01-22T03:44:43.187Z,101540.44
2024-01-22T03:47:11.637Z,101533.50
2024-01-22T03:49:40.589Z,101540.03
2024-01-22T03:52:11.240Z,101542.47
2024-01-22T03:54:39.764Z,101546.53
2024-01-22T03:57:09.121Z,101540.84
2024-01-22T03:59:39.505Z,101546.53
2024-01-22T04:02:07.856Z,101553.41
2024-01-22T04:04:36.401Z,101554.00
2024-01-22T04:07:04.985Z,101544.00
2024-01-22T04:09:34.687Z,101550.06
2024-01-22T04:12:05.141Z,101553.44
2024-01-22T04:14:33.525Z,101552.84
2024-01-22T04:17:01.808Z,101554.78
2024-01-22T04:19:30.145Z,101554.94
2024-01-22T04:21:58.493Z,101556.75
2024-01-22T04:24:26.819Z,101552.69
2024-01-22T04:26:56.895Z,101554.31
2024-01-22T04:29:25.221Z,101564.53
2024-01-22T04:31:53.537Z,101558.84
2024-01-22T04:34:22.951Z,101556.03
2024-01-22T04:36:51.337Z,101555.16
2024-01-22T04:39:20.819Z,101560.25
2024-01-22T04:41:49.633Z,101552.91
2024-01-22T04:44:19.466Z,101560.25
2024-01-22T04:46:47.698Z,101563.47
2024-01-22T04:49:16.067Z,101560.44
2024-01-22T04:51:45.044Z,101559.59
2024-01-22T04:54:13.528Z,101565.28
2024-01-22T04:56:43.754Z,101560.97
2024-01-22T04:59:12.371Z,101569.72
2024-01-22T05:01:51.466Z,101570.09
2024-01-22T05:04:19.887Z,101569.34
2024-01-22T05:06:48.577Z,101561.13
2024-01-22T05:09:17.051Z,101566.59
2024-01-22T05:11:45.395Z,101564.66
2024-01-22T05:14:13.828Z,101567.31
2024-01-22T05:16:42.253Z,101575.25
2024-01-22T05:19:12.161Z,101573.81
2024-01-22T05:21:40.653Z,101574.03
2024-01-22T05:24:12.683Z,101574.03
2024-01-22T05:26:41.177Z,101575.25
2024-01-22T05:29:09.982Z,101573.78
2024-01-22T05:31:38.341Z,101579.22
2024-01-22T05:34:06.761Z,101570.03
2024-01-22T05:36:38.605Z,101569.47
2024-01-22T05:39:07.054Z,101570.94
2024-01-22T05:41:35.372Z,101575.84
2024-01-22T05:44:04.010Z,101568.94
2024-01-22T05:46:32.589Z,101567.91
2024-01-22T05:49:01.071Z,101566.28
2024-01-22T05:51:29.438Z,101570.13
2024-01-22T05:54:01.319Z,101570.56
2024-01-22T05:56:34.055Z,101566.53
2024-01-22T05:59:09.143Z,101579.75
2024-01-22T06:01:37.898Z,101573.19
2024-01-22T06:04:08.158Z,101575.03
2024-01-22T06:06:36.929Z,101578.88
2024-01-22T06:09:07.580Z,101579.25
2024-01-22T06:11:36.632Z,101577.38
2024-01-22T06:14:07.541Z,101587.69
2024-01-22T06:16:35.907Z,101589.56
2024-01-22T06:19:04.367Z,101592.84
2024-01-22T06:21:32.782Z,101591.66
2024-01-22T06:24:01.190Z,101592.47
2024-01-22T06:26:33.377Z,101592.66
2024-01-22T06:29:01.856Z,101592.84
2024-01-22T06:31:30.111Z,101596.13
2024-01-22T06:33:58.512Z,101604.47
2024-01-22T06:36:29.784Z,101593.91
2024-01-22T06:38:58.108Z,101598.56
2024-01-22T06:41:26.783Z,101602.78
2024-01-22T06:43:56.591Z,101599.81
2024-01-22T06:46:25.016Z,101596.41
2024-01-22T06:48:53.433Z,101596.50
2024-01-22T06:51:27.650Z,101596.75
2024-01-22T06:54:02.968Z,101601.47
2024-01-22T06:56:31.266Z,101599.25
2024-01-22T06:59:01.355Z,101607.00
2024-01-22T07:01:29.657Z,101608.06
2024-01-22T07:03:58.069Z,101609.50
2024-01-22T07:06:27.057Z,101609.94
2024-01-22T07:08:55.524Z,101616.09
2024-01-22T07:11:33.081Z,101614.88
2024-01-22T07:14:03.482Z,101627.94
2024-01-22T07:16:31.818Z,101630.84
2024-01-22T07:19:00.202Z,101623.94
2024-01-22T07:21:28.649Z,101622.16
2024-01-22T07:23:57.099Z,101629.69
2024-01-22T07:26:25.498Z,101620.56
2024-01-22T07:28:53.811Z,101621.38
2024-01-22T07:31:23.575Z,101619.34
2024-01-22T07:33:51.962Z,101622.41
2024-01-22T07:36:20.569Z,101626.28
2024-01-22T07:38:49.153Z,101622.25
2024-01-22T07:41:17.459Z,101627.19
2024-01-22T07:43:45.727Z,101627.81
2024-01-22T07:46:13.994Z,101622.53
2024-01-22T07:48:43.804Z,101626.84
2024-01-22T07:51:14.792Z,101622.97
2024-01-22T07:53:44.644Z,101625.41
2024-01-22T07:56:13.106Z,101621.34
2024-01-22T07:58:42.613Z,101620.94
2024-01-22T08:01:11.218Z,101629.28
2024-01-22T08:03:39.901Z,101624.19
2024-01-22T08:06:10.101Z,101630.31
2024-01-22T08:08:38.545Z,101623.78
2024-01-22T08:11:06.956Z,101627.84
2024-01-22T08:13:35.329Z,101625.38
2024-01-22T08:16:04.999Z,101628.47
2024-01-22T08:18:33.608Z,101625.16
2024-01-22T08:21:03.879Z,101633.13
2024-01-22T08:23:33.700Z,101624.94
2024-01-22T08:26:02.281Z,101623.69
2024-01-22T08:28:30.584Z,101631.66
2024-01-22T08:30:58.934Z,101626.31
2024-01-22T08:33:27.465Z,101624.66
2024-01-22T08:35:55.922Z,101630.19
2024-01-22T08:38:23.200Z,101622.75
2024-01-22T08:40:52.913Z,101618.03
2024-01-22T08:43:21.256Z,101622.72
2024-01-22T08:45:49.536Z,101614.94
2024-01-22T08:48:18.219Z,101609.13
2024-01-22T08:50:47.328Z,101613.59
2024-01-22T08:53:16.373Z,101599.69
2024-01-22T08:55:44.682Z,101605.31
2024-01-22T08:58:16.722Z,101605.91
2024-01-22T09:00:45.017Z,101603.81
2024-01-22T09:03:13.249Z,101595.16
2024-01-22T09:05:41.732Z,101594.13
2024-01-22T09:08:09.971Z,101587.34
2024-01-22T09:10:38.141Z,101588.69
2024-01-22T09:13:06.917Z,101582.53
2024-01-22T09:15:36.578Z,101579.59
2024-01-22T09:18:05.143Z,101573.22
2024-01-22T09:20:33.423Z,101582.25
2024-01-22T09:23:03.057Z,101569.13
2024-01-22T09:25:31.509Z,101581.78
2024-01-22T09:28:00.316Z,101576.22
2024-01-22T09:30:28.424Z,101565.53
2024-01-22T09:32:59.186Z,101568.41
2024-01-22T09:35:27.730Z,101563.38
2024-01-22T09:37:56.502Z,101561.75
2024-01-22T09:40:30.500Z,101556.63
2024-01-22T09:43:04.556Z,101547.69
2024-01-22T09:45:36.853Z,101541.97
2024-01-22T09:48:08.098Z,101543.72
2024-01-22T09:50:36.958Z,101540.75
2024-01-22T09:53:11.361Z,101539.34
2024-01-22T09:55:42.007Z,101538.09
2024-01-22T09:58:11.572Z,101532.97
2024-01-22T10:00:46.758Z,101529.66
2024-01-22T10:03:17.260Z,101527.00
2024-01-22T10:05:46.403Z,101516.16
2024-01-22T10:08:15.412Z,101512.41
2024-01-22T10:10:43.688Z,101507.75
2024-01-22T10:13:14.216Z,101508.81
2024-01-22T10:15:42.834Z,101492.50
2024-01-22T10:18:12.153Z,101497.03
2024-01-22T10:20:44.121Z,101488.91
2024-01-22T10:23:13.019Z,101488.00
2024-01-22T10:25:41.707Z,101487.91
2024-01-22T10:28:10.708Z,101476.78
2024-01-22T10:30:40.556Z,101474.56
2024-01-22T10:33:14.212Z,101470.06
2024-01-22T10:35:45.248Z,101471.56
2024-01-22T10:38:18.098Z,101473.31
2024-01-22T10:40:48.095Z,101478.53
2024-01-22T10:43:19.793Z,101465.56
2024-01-22T10:45:49.966Z,101460.91
2024-01-22T10:48:27.717Z,101466.00
2024-01-22T10:51:07.990Z,101461.00
2024-01-22T10:53:38.121Z,101462.97
2024-01-22T10:56:12.052Z,101454.06
2024-01-22T10:58:43.742Z,101453.59
2024-01-22T11:01:17.180Z,101451.03
2024-01-22T11:03:51.117Z,101445.44
2024-01-22T11:06:23.911Z,101453.56
2024-01-22T11:08:53.659Z,101458.16
2024-01-22T11:11:23.466Z,101449.03
2024-01-22T11:13:53.649Z,101451.44
2024-01-22T11:16:22.976Z,101447.38
2024-01-22T11:18:59.523Z,101445.66
2024-01-22T11:21:35.360Z,101444.44
2024-01-22T11:24:17.825Z,101442.69
2024-01-22T11:26:48.229Z,101436.31
2024-01-22T11:29:17.909Z,101433.09
2024-01-22T11:31:48.120Z,101422.19
2024-01-22T11:34:48.719Z,101417.84
2024-01-22T11:37:36.360Z,101421.78
2024-01-22T11:40:08.293Z,101411.66
2024-01-22T11:42:37.993Z,101410.19
2024-01-22T11:45:13.018Z,101418.19
2024-01-22T11:47:42.659Z,101421.91
2024-01-22T11:50:12.566Z,101422.59
2024-01-22T11:52:42.591Z,101410.28
2024-01-22T11:55:11.491Z,101416.53
2024-01-22T11:57:41.747Z,101412.56
2024-01-22T12:00:21.459Z,101397.13
2024-01-22T12:02:52.004Z,101400.38
2024-01-22T12:05:21.623Z,101395.34
2024-01-22T12:07:54.242Z,101398.84
2024-01-22T12:10:25.042Z,101394.06
2024-01-22T12:12:54.709Z,101383.50
2024-01-22T12:15:25.461Z,101383.00
2024-01-22T12:17:54.719Z,101383.81
2024-01-22T12:20:24.734Z,101381.31
2024-01-22T12:23:02.043Z,101379.75
2024-01-22T12:25:37.830Z,101384.88
2024-01-22T12:28:10.466Z,101379.59
2024-01-22T12:30:39.743Z,101376.22
2024-01-22T12:33:09.019Z,101371.66
2024-01-22T12:35:43.964Z,101375.72
2024-01-22T12:38:14.519Z,101372.25
2024-01-22T12:40:44.097Z,101377.50
2024-01-22T12:43:12.504Z,101380.25
2024-01-22T12:45:40.920Z,101370.66
2024-01-22T12:48:09.895Z,101368.44
2024-01-22T12:50:39.685Z,101374.75
2024-01-22T12:53:08.278Z,101364.00
2024-01-22T12:55:38.242Z,101366.59
2024-01-22T12:58:06.835Z,101355.91
2024-01-22T13:00:35.695Z,101358.47
2024-01-22T13:03:04.196Z,101356.50
2024-01-22T13:05:36.325Z,101360.81
2024-01-22T13:08:06.820Z,101358.53
2024-01-22T13:10:35.169Z,101353.84
2024-01-22T13:13:06.078Z,101356.31
2024-01-22T13:15:34.642Z,101357.38
2024-01-22T13:18:03.495Z,101358.31
2024-01-22T13:20:32.225Z,101349.00
2024-01-22T13:23:00.696Z,101344.06
2024-01-22T13:25:30.096Z,101345.81
2024-01-22T13:27:59.083Z,101346.97
2024-01-22T13:30:29.281Z,101342.69
2024-01-22T13:32:58.571Z,101345.41
2024-01-22T13:35:27.292Z,101337.88
2024-01-22T13:37:57.439Z,101336.47
2024-01-22T13:40:26.092Z,101338.53
2024-01-22T13:42:54.375Z,101339.03
2024-01-22T13:45:23.174Z,101334.78
2024-01-22T13:47:55.610Z,101330.44
2024-01-22T13:50:24.505Z,101322.53
2024-01-22T13:52:54.955Z,101323.53
2024-01-22T13:55:24.054Z,101316.16
2024-01-22T13:57:53.235Z,101314.16
2024-01-22T14:00:22.073Z,101312.63
2024-01-22T14:02:50.388Z,101317.91
2024-01-22T14:05:20.336Z,101317.50
2024-01-22T14:07:49.615Z,101315.97
2024-01-22T14:10:18.254Z,101316.66
2024-01-22T14:12:46.876Z,101310.84
2024-01-22T14:15:15.329Z,101312.63
2024-01-22T14:17:43.857Z,101313.06
2024-01-22T14:20:13.632Z,101311.44
2024-01-22T14:22:44.299Z,101313.56
2024-01-22T14:25:13.541Z,101310.81
2024-01-22T14:27:42.124Z,101308.13
2024-01-22T14:30:12.771Z,101302.38
2024-01-22T14:32:41.857Z,101309.13
2024-01-22T14:35:10.341Z,101308.31
2024-01-22T14:37:39.382Z,101301.22
2024-01-22T14:40:11.643Z,101303.03
2024-01-22T14:42:40.106Z,101303.81
2024-01-22T14:45:10.216Z,101299.63
2024-01-22T14:47:39.174Z,101304.50
2024-01-22T14:50:09.025Z,101302.56
2024-01-22T14:52:37.490Z,101302.16
2024-01-22T14:55:07.127Z,101301.19
2024-01-22T14:57:36.932Z,101306.44
2024-01-22T15:00:06.142Z,101301.50
2024-01-22T15:02:36.770Z,101298.94
2024-01-22T15:05:06.265Z,101300.34
2024-01-22T15:07:34.780Z,101298.16
2024-01-22T15:10:03.371Z,101296.88
2024-01-22T15:12:31.766Z,101292.00
2024-01-22T15:15:01.528Z,101291.19
2024-01-22T15:17:29.844Z,101287.22
2024-01-22T15:19:59.604Z,101287.50
2024-01-22T15:22:28.006Z,101282.78
2024-01-22T15:24:56.454Z,101286.31
2024-01-22T15:27:27.595Z,101282.59
2024-01-22T15:29:56.239Z,101282.81
2024-01-22T15:32:27.982Z,101279.53
2024-01-22T15:34:56.802Z,101282.19
2024-01-22T15:37:27.409Z,101285.06
2024-01-22T15:39:56.316Z,101279.94
2024-01-22T15:42:24.855Z,101287.25
2024-01-22T15:44:53.530Z,101295.84
2024-01-22T15:47:21.999Z,101284.81
2024-01-22T15:49:52.375Z,101296.31
2024-01-22T15:52:20.834Z,101298.06
2024-01-22T15:54:49.203Z,101295.50
2024-01-22T15:57:17.530Z,101294.16
2024-01-22T15:59:45.867Z,101289.41
2024-01-22T16:02:14.331Z,101295.22
2024-01-22T16:04:42.714Z,101293.16
2024-01-22T16:07:13.923Z,101300.31
2024-01-22T16:09:44.109Z,101300.09
2024-01-22T16:12:15.531Z,101299.16
2024-01-22T16:14:44.265Z,101296.25
2024-01-22T16:17:12.749Z,101304.94
2024-01-22T16:19:41.364Z,101298.84
2024-01-22T16:22:09.828Z,101308.09
2024-01-22T16:24:39.939Z,101303.66
2024-01-22T16:27:10.824Z,101299.25
2024-01-22T16:29:40.298Z,101298.22
2024-01-22T16:32:09.187Z,101303.81
2024-01-22T16:34:37.843Z,101295.22
2024-01-22T16:37:06.490Z,101306.94
2024-01-22T16:39:39.273Z,101301.72
2024-01-22T16:42:10.069Z,101301.59
2024-01-22T16:44:38.624Z,101302.53
2024-01-22T16:47:07.542Z,101299.63
2024-01-22T16:49:35.962Z,101298.22
2024-01-22T16:52:05.972Z,101305.88
2024-01-22T16:54:35.083Z,101292.22
2024-01-22T16:57:03.970Z,101296.38
2024-01-22T16:59:35.605Z,101299.34
2024-01-22T17:02:04.991Z,101293.09
2024-01-22T17:04:33.338Z,101300.47
2024-01-22T17:07:06.167Z,101307.78
2024-01-22T17:09:34.599Z,101301.06
2024-01-22T17:12:04.314Z,101300.41
2024-01-22T17:14:34.336Z,101297.03
2024-01-22T17:17:02.007Z,101303.53
2024-01-22T17:19:30.694Z,101294.16
2024-01-22T17:22:00.688Z,101294.75
2024-01-22T17:24:29.419Z,101291.63
2024-01-22T17:26:58.004Z,101290.22
2024-01-22T17:29:26.383Z,101292.03
2024-01-22T17:31:56.749Z,101287.06
2024-01-22T17:34:25.353Z,101285.84
2024-01-22T17:36:53.773Z,101274.25
2024-01-22T17:39:22.290Z,101270.53
2024-01-22T17:41:50.564Z,101280.91
2024-01-22T17:44:19.311Z,101281.91
2024-01-22T17:46:47.769Z,101274.25
2024-01-22T17:49:17.630Z,101292.50
2024-01-22T17:51:46.455Z,101291.94
2024-01-22T17:54:14.839Z,101276.06
2024-01-22T17:56:43.140Z,101281.84
2024-01-22T17:59:11.404Z,101286.16
2024-01-22T18:01:39.643Z,101277.94
2024-01-22T18:04:08.094Z,101276.53
2024-01-22T18:06:38.157Z,101279.97
2024-01-22T18:09:08.640Z,101279.94
2024-01-22T18:11:37.108Z,101279.66
2024-01-22T18:14:05.811Z,101282.66
2024-01-22T18:16:34.082Z,101266.81
2024-01-22T18:19:02.344Z,101271.31
2024-01-22T18:21:30.799Z,101270.06
2024-01-22T18:24:00.491Z,101266.78
2024-01-22T18:26:28.839Z,101259.47
2024-01-22T18:28:57.225Z,101263.03
2024-01-22T18:31:28.896Z,101263.69
2024-01-22T18:33:57.399Z,101261.63
2024-01-22T18:36:26.037Z,101264.56
2024-01-22T18:38:54.538Z,101261.03
2024-01-22T18:41:25.030Z,101253.16
2024-01-22T18:43:53.923Z,101256.47
2024-01-22T18:46:23.946Z,101253.91
2024-01-22T18:48:53.046Z,101238.03
2024-01-22T18:51:21.858Z,101235.59
2024-01-22T18:53:50.296Z,101236.06
2024-01-22T18:56:18.518Z,101241.38
2024-01-22T18:58:48.243Z,101240.56
2024-01-22T19:01:18.026Z,101233.59
2024-01-22T19:03:46.649Z,101234.56
2024-01-22T19:06:15.168Z,101227.69
2024-01-22T19:08:44.078Z,101228.63
2024-01-22T19:11:12.473Z,101221.63
2024-01-22T19:13:42.171Z,101225.78
2024-01-22T19:16:13.805Z,101216.66
2024-01-22T19:18:43.067Z,101209.13
2024-01-22T19:21:16.380Z,101217.56
2024-01-22T19:23:44.822Z,101208.56
2024-01-22T19:26:13.167Z,101202.81
2024-01-22T19:28:41.439Z,101194.09
2024-01-22T19:31:11.184Z,101201.84
2024-01-22T19:33:39.717Z,101194.19
2024-01-22T19:36:09.759Z,101195.72
2024-01-22T19:38:38.561Z,101189.72
2024-01-22T19:41:06.869Z,101190.28
2024-01-22T19:43:35.193Z,101182.97
2024-01-22T19:46:04.110Z,101188.50
2024-01-22T19:48:36.757Z,101173.25
2024-01-22T19:51:06.095Z,101172.81
2024-01-22T19:53:34.775Z,101170.56
2024-01-22T19:56:03.133Z,101169.81
2024-01-22T19:58:31.449Z,101166.50
2024-01-22T20:00:59.945Z,101164.41
2024-01-22T20:03:28.336Z,101156.28
2024-01-22T20:05:58.190Z,101150.41
2024-01-22T20:08:26.426Z,101148.56
2024-01-22T20:10:54.807Z,101153.28
2024-01-22T20:13:23.466Z,101148.88
2024-01-22T20:15:51.756Z,101142.81
2024-01-22T20:18:20.176Z,101157.09
2024-01-22T20:20:48.593Z,101154.44
2024-01-22T20:23:18.368Z,101156.47
2024-01-22T20:25:46.688Z,101152.78
2024-01-22T20:28:15.618Z,101150.56
2024-01-22T20:30:44.211Z,101141.09
2024-01-22T20:33:12.639Z,101142.78
2024-01-22T20:35:42.850Z,101146.44
2024-01-22T20:38:12.811Z,101134.72
2024-01-22T20:40:43.470Z,101139.06
2024-01-22T20:43:13.067Z,101130.00
2024-01-22T20:45:41.497Z,101127.75
2024-01-22T20:48:10.138Z,101127.56
2024-01-22T20:50:38.661Z,101128.97
2024-01-22T20:53:06.978Z,101129.03
2024-01-22T20:55:37.351Z,101131.84
2024-01-22T20:58:07.169Z,101135.97
2024-01-22T21:00:35.757Z,101134.50
2024-01-22T21:03:04.669Z,101130.69
2024-01-22T21:05:33.360Z,101131.13
2024-01-22T21:08:01.890Z,101123.56
2024-01-22T21:10:30.854Z,101116.88
2024-01-22T21:12:59.131Z,101120.84
2024-01-22T21:15:29.861Z,101124.53
2024-01-22T21:17:58.733Z,101136.00
2024-01-22T21:20:27.205Z,101127.09
2024-01-22T21:22:55.518Z,101122.84
2024-01-22T21:25:24.786Z,101134.19
2024-01-22T21:27:53.131Z,101128.69
2024-01-22T21:30:21.406Z,101123.75
2024-01-22T21:32:51.304Z,101117.06
2024-01-22T21:35:19.882Z,101123.59
2024-01-22T21:37:48.950Z,101116.53
2024-01-22T21:40:17.449Z,101109.00
2024-01-22T21:42:47.800Z,101110.03
2024-01-22T21:45:17.588Z,101106.19
2024-01-22T21:47:46.075Z,101104.66
2024-01-22T21:50:17.369Z,101097.16
2024-01-22T21:52:45.706Z,101104.56
2024-01-22T21:55:14.166Z,101090.72
2024-01-22T21:57:42.879Z,101084.19
2024-01-22T22:00:12.896Z,101081.16
2024-01-22T22:02:42.138Z,101076.75
2024-01-22T22:05:11.248Z,101070.22
2024-01-22T22:07:41.202Z,101068.63
2024-01-22T22:10:11.182Z,101071.47
2024-01-22T22:12:39.818Z,101072.06
2024-01-22T22:15:09.716Z,101071.69
2024-01-22T22:17:40.229Z,101069.09
2024-01-22T22:20:10.507Z,101075.78
2024-01-22T22:22:40.540Z,101061.94
2024-01-22T22:25:09.828Z,101068.47
2024-01-22T22:27:38.601Z,101064.81
2024-01-22T22:30:08.223Z,101065.25
2024-01-22T22:32:36.607Z,101059.78
2024-01-22T22:35:05.034Z,101059.19
2024-01-22T22:37:33.431Z,101051.28
2024-01-22T22:40:03.596Z,101059.88
2024-01-22T22:42:32.086Z,101049.91
2024-01-22T22:45:00.559Z,101053.38
2024-01-22T22:47:29.069Z,101040.78
2024-01-22T22:49:58.186Z,101039.84
2024-01-22T22:52:27.519Z,101030.69
2024-01-22T22:54:55.876Z,101031.78
2024-01-22T22:57:25.645Z,101031.00
2024-01-22T22:59:54.047Z,101024.91
2024-01-22T23:02:23.332Z,101019.44
2024-01-22T23:04:51.711Z,101018.63
2024-01-22T23:07:20.132Z,101018.25
2024-01-22T23:09:48.763Z,101014.81
2024-01-22T23:12:17.483Z,101014.22
2024-01-22T23:14:47.208Z,101010.56
2024-01-22T23:17:16.116Z,101007.75
2024-01-22T23:19:45.770Z,101007.94
2024-01-22T23:22:14.220Z,101003.09
2024-01-22T23:24:42.888Z,100999.44
2024-01-22T23:27:11.204Z,101009.03
2024-01-22T23:29:39.717Z,101002.34
2024-01-22T23:32:10.902Z,100997.28
2024-01-22T23:34:39.620Z,100996.06
2024-01-22T23:37:07.980Z,100988.69
2024-01-22T23:39:36.428Z,100993.78
2024-01-22T23:42:05.225Z,100989.53
2024-01-22T23:44:33.530Z,100983.06
2024-01-22T23:47:01.806Z,100983.09
2024-01-22T23:49:32.489Z,100983.50
2024-01-22T23:52:00.753Z,100978.66
2024-01-22T23:54:29.084Z,100976.19
2024-01-22T23:56:58.939Z,100977.03
2024-01-22T23:59:27.486Z,100972.16
